Time;durP1;ratioP1;P1;durP2;ratioP2;P2;SDS_P1;SDS_P2;PMS_P1;PMS_P2;Temp;Humidity;BMP_temperature;BMP_pressure;BME280_temperature;BME280_humidity;BME280_pressure;Samples;Min_cycle;Max_cycle;Signal;HPM_P1;HPM_P2
2022/04/30 00:00:16;;;;;;;16.83;11.13;;;10.70;70.40;;;;;;5092988;28;20101;-80
2022/04/30 00:02:43;;;;;;;15.05;11.82;;;10.70;70.50;;;;;;5092524;28;20048;-80
2022/04/30 00:05:10;;;;;;;16.00;12.13;;;10.70;70.50;;;;;;5092558;28;20055;-80
2022/04/30 00:07:37;;;;;;;16.67;12.27;;;10.60;70.60;;;;;;5092303;28;20089;-80
2022/04/30 00:10:04;;;;;;;17.58;12.23;;;10.60;70.70;;;;;;5092448;28;20043;-80
2022/04/30 00:12:31;;;;;;;15.75;12.00;;;10.60;70.70;;;;;;5092984;28;20445;-80
2022/04/30 00:14:58;;;;;;;16.38;12.18;;;10.60;70.80;;;;;;5092364;28;20047;-80
2022/04/30 00:17:25;;;;;;;15.88;12.07;;;10.60;70.80;;;;;;5092365;28;20563;-80
2022/04/30 00:19:52;;;;;;;17.73;13.05;;;10.60;70.90;;;;;;5092273;28;20150;-80
2022/04/30 00:22:19;;;;;;;17.05;12.82;;;10.60;70.90;;;;;;5091902;28;20479;-80
2022/04/30 00:24:46;;;;;;;20.92;12.40;;;10.50;71.00;;;;;;5092542;28;20105;-80
2022/04/30 00:27:14;;;;;;;17.70;13.43;;;10.50;71.10;;;;;;5091791;28;20135;-80
2022/04/30 00:29:41;;;;;;;17.63;12.60;;;10.50;71.10;;;;;;5092177;28;20044;-80
2022/04/30 00:32:26;;;;;;;20.08;13.35;;;10.50;71.20;;;;;;5092291;28;20097;-80
2022/04/30 00:34:53;;;;;;;17.67;13.75;;;10.50;71.30;;;;;;5092119;28;20048;-80
2022/04/30 00:37:20;;;;;;;16.65;14.05;;;10.50;71.30;;;;;;5091781;28;20048;-81
2022/04/30 00:39:47;;;;;;;20.92;14.15;;;10.40;71.30;;;;;;5092034;28;20048;-81
2022/04/30 00:42:15;;;;;;;20.88;13.75;;;10.50;71.40;;;;;;5092497;28;20044;-82
2022/04/30 00:44:43;;;;;;;16.33;13.00;;;10.40;71.50;;;;;;5091927;28;20052;-80
2022/04/30 00:47:18;;;;;;;16.80;13.48;;;10.50;71.50;;;;;;5091856;28;20052;-80
2022/04/30 00:49:46;;;;;;;19.33;14.05;;;10.50;71.60;;;;;;5091469;28;20048;-80
2022/04/30 00:52:18;;;;;;;16.13;14.25;;;10.40;71.60;;;;;;5091920;28;20048;-80
2022/04/30 00:54:56;;;;;;;18.30;13.95;;;10.40;71.70;;;;;;5092048;28;20044;-80
2022/04/30 00:57:25;;;;;;;19.83;13.63;;;10.40;71.70;;;;;;5090596;28;20172;-81
2022/04/30 01:00:01;;;;;;;18.77;14.10;;;10.50;71.70;;;;;;5091670;28;20044;-80
2022/04/30 01:02:29;;;;;;;15.75;13.85;;;10.50;71.70;;;;;;5091474;28;20395;-80
2022/04/30 01:04:58;;;;;;;19.77;13.32;;;10.50;71.70;;;;;;5091396;28;20097;-80
2022/04/30 01:07:44;;;;;;;19.17;13.90;;;10.40;71.70;;;;;;5092014;28;20043;-80
2022/04/30 01:10:11;;;;;;;16.73;13.38;;;10.50;71.70;;;;;;5075887;28;20044;-81
2022/04/30 01:12:39;;;;;;;22.67;12.48;;;10.50;71.60;;;;;;5092352;28;20052;-81
2022/04/30 01:15:07;;;;;;;15.85;13.77;;;10.50;71.60;;;;;;5095711;28;20048;-81
2022/04/30 01:17:35;;;;;;;15.38;12.27;;;10.50;71.50;;;;;;5095801;28;20093;-80
2022/04/30 01:20:04;;;;;;;15.55;13.10;;;10.50;71.40;;;;;;5095349;28;20679;-80
2022/04/30 01:22:40;;;;;;;19.27;12.93;;;10.50;71.40;;;;;;5095767;28;20066;-81
2022/04/30 01:25:08;;;;;;;15.25;12.32;;;10.60;71.30;;;;;;5095687;28;20093;-80
2022/04/30 01:27:36;;;;;;;15.38;10.93;;;10.50;71.20;;;;;;5096448;28;20048;-80
2022/04/30 01:30:04;;;;;;;13.68;11.63;;;10.60;71.10;;;;;;5095475;28;20052;-79
2022/04/30 01:38:05;;;;;;;12.85;10.07;;;10.60;70.70;;;;;;5095177;28;20101;-79
2022/04/30 01:40:50;;;;;;;14.05;9.93;;;10.60;70.50;;;;;;5095234;28;20472;-81
2022/04/30 01:43:17;;;;;;;16.60;11.10;;;10.60;70.40;;;;;;5080432;28;20168;-79
2022/04/30 01:45:45;;;;;;;12.05;10.48;;;10.60;70.30;;;;;;5095466;28;20552;-80
2022/04/30 01:48:14;;;;;;;13.38;10.10;;;10.60;70.20;;;;;;5095240;28;20101;-80
2022/04/30 01:50:42;;;;;;;13.98;9.75;;;10.60;70.10;;;;;;5095057;28;20421;-80
2022/04/30 01:53:10;;;;;;;10.55;9.00;;;10.60;70.00;;;;;;5095076;28;20040;-81
2022/04/30 01:55:37;;;;;;;13.13;9.77;;;10.60;69.90;;;;;;5095154;28;20511;-80
2022/04/30 01:58:22;;;;;;;12.05;10.05;;;10.60;69.70;;;;;;5080746;28;20043;-81
2022/04/30 02:00:49;;;;;;;13.45;10.13;;;10.60;69.60;;;;;;5095361;28;20097;-80
2022/04/30 02:03:17;;;;;;;11.93;9.88;;;10.60;69.50;;;;;;5095061;28;20093;-81
2022/04/30 02:05:45;;;;;;;13.10;9.68;;;10.60;69.40;;;;;;5094880;28;20105;-80
2022/04/30 02:08:14;;;;;;;13.02;9.90;;;10.60;69.30;;;;;;5094786;28;20119;-80
2022/04/30 02:10:42;;;;;;;12.40;9.35;;;10.60;69.30;;;;;;5094741;28;20044;-80
2022/04/30 02:13:10;;;;;;;13.30;9.57;;;10.60;69.20;;;;;;5078417;28;20117;-80
2022/04/30 02:15:40;;;;;;;14.57;9.50;;;10.60;69.10;;;;;;5095814;28;20051;-80
2022/04/30 02:18:12;;;;;;;11.82;9.18;;;10.60;69.00;;;;;;5094593;28;20046;-81
2022/04/30 02:20:44;;;;;;;13.00;9.60;;;10.60;68.90;;;;;;5094500;28;20052;-80
2022/04/30 02:23:11;;;;;;;11.32;9.38;;;10.60;68.80;;;;;;5094524;28;20047;-81
2022/04/30 02:25:38;;;;;;;11.02;9.32;;;10.60;68.80;;;;;;5094578;28;20048;-80
2022/04/30 02:28:08;;;;;;;13.55;9.48;;;10.60;68.70;;;;;;5094518;28;20048;-80
2022/04/30 02:30:38;;;;;;;14.68;9.93;;;10.60;68.70;;;;;;5094875;28;20087;-80
2022/04/30 02:33:10;;;;;;;12.93;9.35;;;10.60;68.60;;;;;;5093980;28;20425;-79
2022/04/30 02:35:46;;;;;;;13.98;9.63;;;10.60;68.50;;;;;;5094342;28;20048;-79
2022/04/30 02:38:13;;;;;;;14.15;9.43;;;10.60;68.40;;;;;;5094011;28;20048;-81
2022/04/30 02:40:41;;;;;;;14.02;9.23;;;10.60;68.40;;;;;;5094345;28;20107;-81
2022/04/30 02:43:10;;;;;;;13.73;9.02;;;10.60;68.40;;;;;;5094262;28;20472;-80
2022/04/30 02:45:39;;;;;;;15.18;8.77;;;10.60;68.30;;;;;;5090298;28;20130;-80
2022/04/30 02:48:07;;;;;;;10.63;8.82;;;10.60;68.30;;;;;;5094216;28;20105;-80
2022/04/30 02:50:36;;;;;;;11.85;9.40;;;10.60;68.20;;;;;;5093821;28;20476;-80
2022/04/30 02:53:04;;;;;;;13.57;9.07;;;10.60;68.20;;;;;;5094007;28;20052;-80
2022/04/30 02:55:32;;;;;;;14.68;9.60;;;10.60;68.10;;;;;;5094068;28;20052;-79
2022/04/30 03:00:46;;;;;;;13.38;9.30;;;10.60;68.00;;;;;;5090344;28;20043;-80
2022/04/30 03:03:15;;;;;;;12.73;8.95;;;10.70;67.90;;;;;;5093234;28;20456;-80
2022/04/30 03:05:44;;;;;;;12.13;9.13;;;10.60;67.80;;;;;;5093736;28;20055;-80
2022/04/30 03:08:18;;;;;;;12.60;8.77;;;10.60;67.80;;;;;;5093947;28;20040;-81
2022/04/30 03:10:46;;;;;;;12.25;9.50;;;10.60;67.70;;;;;;5093529;28;20055;-81
2022/04/30 03:13:14;;;;;;;12.80;9.13;;;10.60;67.60;;;;;;5093680;28;20105;-80
2022/04/30 03:15:45;;;;;;;12.05;9.57;;;10.60;67.50;;;;;;5093848;28;20117;-80
2022/04/30 03:23:35;;;;;;;13.07;9.90;;;10.50;67.30;;;;;;5093489;28;20093;-81
2022/04/30 03:26:04;;;;;;;13.63;10.05;;;10.50;67.20;;;;;;5093460;28;20048;-81
2022/04/30 03:28:32;;;;;;;12.65;9.48;;;10.40;67.20;;;;;;5093399;28;20089;-80
2022/04/30 03:31:00;;;;;;;11.82;10.15;;;10.40;67.10;;;;;;5092854;28;20048;-80
2022/04/30 03:33:27;;;;;;;11.35;9.43;;;10.40;67.10;;;;;;5093263;28;20044;-80
2022/04/30 03:35:54;;;;;;;15.32;10.57;;;10.40;67.00;;;;;;5093023;28;20097;-81
2022/04/30 03:38:21;;;;;;;13.93;9.90;;;10.40;67.00;;;;;;5092857;28;20095;-82
2022/04/30 03:40:48;;;;;;;17.60;9.60;;;10.30;66.90;;;;;;5093089;28;20105;-81
2022/04/30 03:43:16;;;;;;;15.93;10.00;;;10.30;66.90;;;;;;5093246;28;20403;-80
2022/04/30 03:45:43;;;;;;;13.50;9.75;;;10.30;66.90;;;;;;5091709;28;20048;-79
2022/04/30 03:48:10;;;;;;;12.13;9.52;;;10.20;66.90;;;;;;5092844;28;20109;-81
2022/04/30 03:50:36;;;;;;;12.95;9.50;;;10.20;66.90;;;;;;5092662;28;20044;-82
2022/04/30 03:53:04;;;;;;;12.85;9.27;;;10.10;66.90;;;;;;5092724;28;20390;-80
2022/04/30 03:55:30;;;;;;;16.13;10.00;;;10.10;66.90;;;;;;5093003;28;20399;-81
2022/04/30 03:58:16;;;;;;;14.32;9.43;;;10.00;67.00;;;;;;5092849;28;20116;-82
2022/04/30 04:00:45;;;;;;;12.95;10.07;;;10.00;66.90;;;;;;5089489;28;20112;-79
2022/04/30 04:03:13;;;;;;;12.95;9.73;;;9.90;67.00;;;;;;5092917;28;20105;-80
2022/04/30 04:05:40;;;;;;;14.00;10.00;;;9.90;67.00;;;;;;5092670;28;20073;-80
2022/04/30 04:08:12;;;;;;;13.02;10.20;;;9.90;67.00;;;;;;5092576;28;20055;-80
2022/04/30 04:10:40;;;;;;;12.13;10.05;;;9.90;67.10;;;;;;5092584;28;20105;-80
2022/04/30 04:18:39;;;;;;;13.43;9.77;;;9.70;67.10;;;;;;5093078;28;20051;-82
2022/04/30 04:21:08;;;;;;;13.70;9.70;;;9.70;67.20;;;;;;5092513;28;20044;-82
2022/04/30 04:26:21;;;;;;;13.68;9.55;;;9.60;67.30;;;;;;5092181;28;20101;-80
2022/04/30 04:28:48;;;;;;;14.50;9.70;;;9.50;67.30;;;;;;5091930;28;20044;-80
2022/04/30 04:31:17;;;;;;;12.75;10.43;;;9.50;67.40;;;;;;5092190;28;20039;-80
2022/04/30 04:33:44;;;;;;;15.00;9.70;;;9.50;67.40;;;;;;5092424;28;20421;-79
2022/04/30 04:36:11;;;;;;;14.23;10.23;;;9.40;67.50;;;;;;5092661;28;20075;-79
2022/04/30 04:38:38;;;;;;;13.57;10.27;;;9.40;67.60;;;;;;5091935;28;20139;-82
2022/04/30 04:41:05;;;;;;;15.70;10.32;;;9.40;67.60;;;;;;5091877;28;20559;-81
2022/04/30 04:43:32;;;;;;;15.50;10.57;;;9.40;67.70;;;;;;5091910;28;20105;-81
2022/04/30 04:46:03;;;;;;;13.23;10.88;;;9.30;67.80;;;;;;5091085;28;20105;-80
2022/04/30 04:48:31;;;;;;;13.18;11.18;;;9.30;67.90;;;;;;5092477;28;20494;-80
2022/04/30 04:50:58;;;;;;;14.68;11.00;;;9.20;67.90;;;;;;5091799;28;20051;-79
2022/04/30 04:53:25;;;;;;;15.10;11.75;;;9.20;68.00;;;;;;5091860;28;20044;-79
2022/04/30 04:55:53;;;;;;;15.55;11.38;;;9.20;68.10;;;;;;5091629;28;20505;-82
2022/04/30 04:58:19;;;;;;;15.35;11.52;;;9.10;68.10;;;;;;5091527;28;20456;-80
2022/04/30 05:00:46;;;;;;;14.80;11.48;;;9.00;68.20;;;;;;5091980;28;20563;-80
2022/04/30 05:03:13;;;;;;;16.85;12.63;;;9.00;68.30;;;;;;5091173;28;20059;-80
2022/04/30 05:05:40;;;;;;;15.98;12.32;;;9.00;68.40;;;;;;5091822;28;20071;-80
2022/04/30 05:08:07;;;;;;;17.15;12.60;;;9.00;68.40;;;;;;5091590;28;20459;-80
2022/04/30 05:10:36;;;;;;;14.82;12.05;;;8.90;68.50;;;;;;5091633;28;20052;-80
2022/04/30 05:13:03;;;;;;;15.88;12.68;;;8.90;68.60;;;;;;5091782;28;20072;-80
2022/04/30 05:15:30;;;;;;;16.30;13.05;;;8.90;68.80;;;;;;5092335;28;20052;-82
2022/04/30 05:17:58;;;;;;;15.63;13.18;;;8.90;68.90;;;;;;5091663;28;20055;-81
2022/04/30 05:20:25;;;;;;;16.88;12.93;;;8.80;69.00;;;;;;5091604;28;20063;-80
2022/04/30 05:23:08;;;;;;;17.75;12.77;;;8.80;69.10;;;;;;5091634;28;20040;-80
2022/04/30 05:25:37;;;;;;;16.20;13.18;;;8.80;69.20;;;;;;5091429;28;20040;-80
2022/04/30 05:28:04;;;;;;;20.02;12.73;;;8.80;69.40;;;;;;5091762;28;20454;-80
2022/04/30 05:30:31;;;;;;;19.52;13.85;;;8.70;69.50;;;;;;5092209;28;20048;-81
2022/04/30 05:32:58;;;;;;;17.35;13.00;;;8.70;69.60;;;;;;5091473;28;20066;-81
2022/04/30 05:35:25;;;;;;;15.50;13.30;;;8.70;69.70;;;;;;5091495;28;20101;-81
2022/04/30 05:38:09;;;;;;;21.85;13.90;;;8.70;69.90;;;;;;5091217;28;20047;-81
2022/04/30 05:40:36;;;;;;;16.17;13.50;;;8.60;70.00;;;;;;5091081;28;20094;-81
2022/04/30 05:43:04;;;;;;;16.60;13.15;;;8.60;70.10;;;;;;5087392;28;20517;-81
2022/04/30 05:45:31;;;;;;;17.38;14.15;;;8.60;70.20;;;;;;5091051;28;20048;-80
2022/04/30 05:48:17;;;;;;;19.48;13.75;;;8.60;70.30;;;;;;5090948;28;20101;-80
2022/04/30 05:50:44;;;;;;;19.63;14.18;;;8.60;70.50;;;;;;5090850;28;20052;-80
2022/04/30 05:53:11;;;;;;;16.67;14.38;;;8.60;70.50;;;;;;5090024;28;20044;-81
2022/04/30 05:55:40;;;;;;;18.55;13.65;;;8.60;70.70;;;;;;5084557;28;20048;-79
2022/04/30 05:58:07;;;;;;;15.27;12.95;;;8.60;70.80;;;;;;5090996;28;20040;-81
2022/04/30 06:00:35;;;;;;;14.38;12.38;;;8.60;70.80;;;;;;5079424;28;20048;-81
2022/04/30 06:03:02;;;;;;;21.20;13.60;;;8.60;70.90;;;;;;5079410;28;20052;-81
2022/04/30 06:05:29;;;;;;;16.55;13.30;;;8.60;71.00;;;;;;5079378;28;20044;-80
2022/04/30 06:07:56;;;;;;;16.88;12.88;;;8.60;71.20;;;;;;5079364;28;20109;-81
2022/04/30 06:10:23;;;;;;;15.50;13.05;;;8.70;71.30;;;;;;5076185;28;20094;-81
2022/04/30 06:12:50;;;;;;;17.02;13.05;;;8.60;71.30;;;;;;5077020;28;20078;-81
2022/04/30 06:15:17;;;;;;;15.75;12.57;;;8.70;71.40;;;;;;5089655;28;20047;-80
2022/04/30 06:17:44;;;;;;;13.70;11.75;;;8.70;71.50;;;;;;5082205;28;20114;-80
2022/04/30 06:20:11;;;;;;;16.33;12.32;;;8.70;71.50;;;;;;5079200;28;20088;-82
2022/04/30 06:22:38;;;;;;;16.90;12.80;;;8.70;71.50;;;;;;5078576;28;20052;-82
2022/04/30 06:25:06;;;;;;;16.50;11.85;;;8.80;71.60;;;;;;5074684;28;20552;-81
2022/04/30 06:27:33;;;;;;;18.25;11.77;;;8.80;71.70;;;;;;5079002;28;20098;-81
2022/04/30 06:30:00;;;;;;;18.20;11.73;;;8.90;71.70;;;;;;5078809;28;20048;-80
2022/04/30 06:32:27;;;;;;;15.35;12.00;;;8.90;71.70;;;;;;5078888;28;20525;-80
2022/04/30 06:37:40;;;;;;;15.73;11.38;;;8.90;71.60;;;;;;5077883;28;20044;-80
2022/04/30 06:40:07;;;;;;;15.00;10.60;;;8.90;71.60;;;;;;5074621;28;20048;-80
2022/04/30 06:42:42;;;;;;;13.65;10.15;;;9.00;71.60;;;;;;5089473;28;20472;-80
2022/04/30 06:45:10;;;;;;;16.33;10.07;;;9.00;71.50;;;;;;5088260;28;20048;-80
2022/04/30 06:47:37;;;;;;;14.80;10.85;;;9.10;71.50;;;;;;5082618;28;20052;-79
2022/04/30 06:50:23;;;;;;;13.15;9.60;;;9.20;71.40;;;;;;5078669;28;20052;-80
2022/04/30 06:58:22;;;;;;;14.93;9.32;;;9.30;71.10;;;;;;5075394;28;20102;-80
2022/04/30 07:03:23;;;;;;;12.40;8.60;;;9.40;70.90;;;;;;5073934;28;20053;-80
2022/04/30 07:05:51;;;;;;;12.27;8.90;;;9.40;70.70;;;;;;5078136;28;20048;-80
2022/04/30 07:08:18;;;;;;;13.02;8.65;;;9.40;70.60;;;;;;5077063;28;20090;-80
2022/04/30 07:10:45;;;;;;;12.35;8.15;;;9.50;70.50;;;;;;5078130;28;20559;-79
2022/04/30 07:13:12;;;;;;;12.32;8.13;;;9.50;70.40;;;;;;5074224;28;20113;-80
2022/04/30 07:15:39;;;;;;;13.68;8.68;;;9.60;70.30;;;;;;5089830;28;20040;-80
2022/04/30 07:18:23;;;;;;;;;;;9.60;70.20;;;;;;5078695;28;20050;-79
2022/04/30 07:20:52;;;;;;;11.85;8.18;;;9.70;70.10;;;;;;5077944;28;19990;-80
2022/04/30 07:23:20;;;;;;;12.95;8.65;;;9.70;70.00;;;;;;5077719;28;20109;-80
2022/04/30 07:25:48;;;;;;;10.18;7.32;;;9.70;69.90;;;;;;5077902;28;20048;-82
2022/04/30 07:28:15;;;;;;;11.85;7.55;;;9.80;69.80;;;;;;5074033;28;20112;-80
2022/04/30 07:30:42;;;;;;;10.57;7.53;;;9.80;69.70;;;;;;5087317;28;20048;-80
2022/04/30 07:33:28;;;;;;;10.55;7.32;;;9.90;69.60;;;;;;5079371;28;20067;-80
2022/04/30 07:36:00;;;;;;;9.45;7.70;;;9.90;69.50;;;;;;5077438;28;20052;-80
2022/04/30 07:38:27;;;;;;;12.68;7.55;;;10.00;69.30;;;;;;5082325;28;20044;-80
2022/04/30 07:40:54;;;;;;;14.82;7.65;;;10.00;69.20;;;;;;5088865;28;20082;-80
2022/04/30 07:43:22;;;;;;;10.10;7.68;;;10.10;69.00;;;;;;5089535;28;20067;-80
2022/04/30 07:45:48;;;;;;;11.60;6.88;;;10.10;68.90;;;;;;5075331;28;20556;-80
2022/04/30 07:48:15;;;;;;;10.75;7.20;;;10.10;68.70;;;;;;5078288;28;20059;-80
2022/04/30 07:50:45;;;;;;;13.55;7.75;;;10.10;68.60;;;;;;5082466;28;20101;-80
2022/04/30 07:53:14;;;;;;;11.60;7.85;;;10.20;68.50;;;;;;5085029;28;20465;-80
2022/04/30 07:55:42;;;;;;;11.13;7.75;;;10.20;68.40;;;;;;5077305;28;20040;-80
2022/04/30 07:58:09;;;;;;;10.88;6.63;;;10.20;68.40;;;;;;5073232;28;20571;-80
2022/04/30 08:00:36;;;;;;;14.98;8.57;;;10.20;68.30;;;;;;5077389;28;20052;-79
2022/04/30 08:03:03;;;;;;;11.90;7.90;;;10.30;68.20;;;;;;5077543;28;20059;-79
2022/04/30 08:05:49;;;;;;;11.48;6.93;;;10.30;68.20;;;;;;5080745;28;20093;-81
2022/04/30 08:08:16;;;;;;;11.75;7.63;;;10.30;68.10;;;;;;5084241;28;20049;-81
2022/04/30 08:10:45;;;;;;;12.20;8.00;;;10.40;68.10;;;;;;5077187;28;20044;-81
2022/04/30 08:13:12;;;;;;;9.75;7.25;;;10.40;68.00;;;;;;5073642;28;20040;-81
2022/04/30 08:15:43;;;;;;;10.15;6.88;;;10.40;68.00;;;;;;5088764;28;20093;-80
2022/04/30 08:18:10;;;;;;;12.15;7.60;;;10.40;68.00;;;;;;5077892;28;20083;-80
2022/04/30 08:20:38;;;;;;;11.65;7.28;;;10.50;68.10;;;;;;5076605;28;20052;-80
2022/04/30 08:23:08;;;;;;;11.07;7.07;;;10.50;68.10;;;;;;5076930;28;20222;-80
2022/04/30 08:25:36;;;;;;;14.07;7.38;;;10.50;68.10;;;;;;5074606;28;20098;-80
2022/04/30 08:28:03;;;;;;;11.52;6.97;;;10.60;68.10;;;;;;5088978;28;20052;-80
2022/04/30 08:30:32;;;;;;;12.05;6.93;;;10.60;68.00;;;;;;5076843;28;20492;-80
2022/04/30 08:32:59;;;;;;;10.20;6.63;;;10.60;68.00;;;;;;5076828;28;20048;-80
2022/04/30 08:35:26;;;;;;;10.00;6.35;;;10.70;67.90;;;;;;5076557;28;20482;-80
2022/04/30 08:38:07;;;;;;;11.38;7.22;;;10.70;67.90;;;;;;5076579;28;20041;-80
2022/04/30 08:40:35;;;;;;;11.05;6.80;;;10.80;67.80;;;;;;5075275;28;20460;-80
2022/04/30 08:43:13;;;;;;;8.75;5.82;;;10.80;67.70;;;;;;5073618;28;20052;-80
2022/04/30 08:45:42;;;;;;;8.23;5.72;;;10.90;67.60;;;;;;5088455;28;20463;-81
2022/04/30 08:48:11;;;;;;;10.52;5.65;;;10.90;67.50;;;;;;5085900;28;20463;-81
2022/04/30 08:50:40;;;;;;;12.73;5.88;;;11.00;67.40;;;;;;5080489;28;20045;-80
2022/04/30 08:53:07;;;;;;;10.25;6.30;;;11.10;67.30;;;;;;5076394;28;20044;-81
2022/04/30 08:55:34;;;;;;;9.52;6.65;;;11.20;67.30;;;;;;5075148;28;20459;-81
2022/04/30 08:58:02;;;;;;;9.52;5.88;;;11.30;67.20;;;;;;5073452;28;20053;-80
2022/04/30 09:00:29;;;;;;;10.63;6.70;;;11.40;67.10;;;;;;5076510;28;20049;-80
2022/04/30 09:02:59;;;;;;;9.40;6.35;;;11.40;66.90;;;;;;5083188;28;20048;-81
2022/04/30 09:05:31;;;;;;;11.45;6.10;;;11.50;66.70;;;;;;5084945;28;20040;-80
2022/04/30 09:07:59;;;;;;;8.10;5.88;;;11.60;66.50;;;;;;5087885;28;20057;-80
2022/04/30 09:10:32;;;;;;;8.85;6.10;;;11.70;66.30;;;;;;5087551;28;20043;-80
2022/04/30 09:13:10;;;;;;;13.60;7.00;;;11.80;66.10;;;;;;5088474;28;20051;-80
2022/04/30 09:18:24;;;;;;;9.65;5.95;;;11.90;65.60;;;;;;5075976;28;20045;-80
2022/04/30 09:20:54;;;;;;;9.32;6.20;;;11.90;65.40;;;;;;5076259;28;20045;-80
2022/04/30 09:23:31;;;;;;;8.13;5.82;;;12.00;65.20;;;;;;5076441;28;20052;-80
2022/04/30 09:26:02;;;;;;;9.32;6.32;;;12.00;65.00;;;;;;5076299;28;20060;-80
2022/04/30 09:28:32;;;;;;;8.63;5.63;;;12.10;64.80;;;;;;5073453;28;20044;-80
2022/04/30 09:31:14;;;;;;;10.75;5.65;;;12.10;64.70;;;;;;5088258;28;20052;-80
2022/04/30 09:33:55;;;;;;;9.30;5.60;;;12.10;64.50;;;;;;5091720;28;20484;-80
2022/04/30 09:39:20;;;;;;;6.78;5.15;;;12.20;64.30;;;;;;5089293;28;20659;-80
2022/04/30 09:41:47;;;;;;;7.32;4.95;;;12.30;64.20;;;;;;5082653;28;20547;-79
2022/04/30 09:44:14;;;;;;;7.45;5.65;;;12.30;64.10;;;;;;5080088;28;20054;-79
2022/04/30 09:46:41;;;;;;;11.13;6.35;;;12.40;64.00;;;;;;5079202;28;20044;-79
2022/04/30 09:54:43;;;;;;;6.65;4.70;;;12.50;63.50;;;;;;5091812;28;20097;-80
2022/04/30 09:57:14;;;;;;;11.90;5.90;;;12.50;63.30;;;;;;5080457;28;20517;-80
2022/04/30 09:59:42;;;;;;;11.73;5.30;;;12.50;63.20;;;;;;5084677;28;20044;-80
2022/04/30 10:02:13;;;;;;;8.10;5.18;;;12.60;63.00;;;;;;5087465;28;20055;-79
2022/04/30 10:04:43;;;;;;;6.95;4.95;;;12.60;62.90;;;;;;5079067;28;20480;-80
2022/04/30 10:07:12;;;;;;;8.60;5.22;;;12.70;62.80;;;;;;5074066;28;20044;-79
2022/04/30 10:09:55;;;;;;;7.88;5.65;;;12.70;62.80;;;;;;5091154;28;20124;-79
2022/04/30 10:12:32;;;;;;;7.95;4.97;;;12.70;62.70;;;;;;5074997;28;20090;-80
2022/04/30 10:15:37;;;;;;;6.70;4.88;;;12.80;62.60;;;;;;5079314;28;20049;-79
2022/04/30 10:18:07;;;;;;;9.00;4.78;;;12.90;62.50;;;;;;5079364;28;20048;-79
2022/04/30 10:20:35;;;;;;;7.50;4.85;;;12.90;62.40;;;;;;5079452;28;20102;-79
2022/04/30 10:23:21;;;;;;;8.40;5.18;;;13.00;62.30;;;;;;5079284;28;20044;-79
2022/04/30 10:25:48;;;;;;;6.97;5.10;;;13.10;62.10;;;;;;5076815;28;20041;-79
2022/04/30 10:28:22;;;;;;;9.07;4.63;;;13.20;62.00;;;;;;5092100;28;20048;-79
2022/04/30 10:30:59;;;;;;;8.57;4.80;;;13.40;61.90;;;;;;5090138;28;20448;-82
2022/04/30 10:33:26;;;;;;;7.32;4.85;;;13.40;61.70;;;;;;5092929;28;20125;-79
2022/04/30 10:36:08;;;;;;;8.45;5.30;;;13.50;61.60;;;;;;5080871;28;20044;-79
2022/04/30 10:38:36;;;;;;;9.73;4.93;;;13.60;61.40;;;;;;5078733;28;20052;-79
2022/04/30 10:41:08;;;;;;;7.82;4.57;;;13.70;61.20;;;;;;5078824;28;20097;-79
2022/04/30 10:43:40;;;;;;;7.25;5.13;;;13.80;61.00;;;;;;5076381;28;20062;-79
2022/04/30 10:46:13;;;;;;;6.20;4.80;;;13.90;60.80;;;;;;5075150;28;20079;-80
2022/04/30 10:48:40;;;;;;;7.77;5.10;;;14.00;60.60;;;;;;5085861;28;20070;-79
2022/04/30 10:51:13;;;;;;;12.05;5.78;;;14.10;60.50;;;;;;5079183;28;20174;-79
2022/04/30 10:53:45;;;;;;;8.45;6.13;;;14.20;60.30;;;;;;5078725;28;20048;-81
2022/04/30 10:56:14;;;;;;;9.55;5.70;;;14.20;60.20;;;;;;5079709;28;20044;-80
2022/04/30 10:58:44;;;;;;;7.60;5.47;;;14.30;60.10;;;;;;5089793;28;20052;-81
2022/04/30 11:01:18;;;;;;;8.50;6.28;;;14.40;59.90;;;;;;5074666;28;20414;-81
2022/04/30 11:03:50;;;;;;;10.88;5.68;;;14.40;59.70;;;;;;5089667;28;20117;-81
2022/04/30 11:06:37;;;;;;;8.25;5.50;;;14.40;59.60;;;;;;5088925;28;20044;-80
2022/04/30 11:09:06;;;;;;;8.68;5.85;;;14.40;59.40;;;;;;5086891;28;20563;-81
2022/04/30 11:11:37;;;;;;;8.55;6.07;;;14.40;59.30;;;;;;5083120;28;20036;-80
2022/04/30 11:14:07;;;;;;;8.15;5.85;;;14.50;59.20;;;;;;5077776;28;20543;-80
2022/04/30 11:16:36;;;;;;;12.10;6.30;;;14.50;59.10;;;;;;5077054;28;20036;-80
2022/04/30 11:19:07;;;;;;;9.52;6.45;;;14.50;59.00;;;;;;5074952;28;20059;-80
2022/04/30 11:21:36;;;;;;;8.50;5.80;;;14.40;58.90;;;;;;5078229;28;20511;-80
2022/04/30 11:24:05;;;;;;;8.30;5.00;;;14.50;58.90;;;;;;5078280;28;20060;-80
2022/04/30 11:26:43;;;;;;;10.18;5.88;;;14.40;58.80;;;;;;5078117;28;20052;-80
2022/04/30 11:29:11;;;;;;;11.25;5.78;;;14.40;58.70;;;;;;5077882;28;20040;-80
2022/04/30 11:31:39;;;;;;;7.22;5.72;;;14.40;58.70;;;;;;5089219;28;20109;-80
2022/04/30 11:34:15;;;;;;;8.13;5.88;;;14.40;58.70;;;;;;5073721;28;20131;-80
2022/04/30 11:36:49;;;;;;;9.13;5.72;;;14.40;58.70;;;;;;5089611;28;20044;-80
2022/04/30 11:39:18;;;;;;;8.18;5.55;;;14.40;58.80;;;;;;5087848;28;20056;-80
2022/04/30 11:41:50;;;;;;;9.00;5.93;;;14.30;58.80;;;;;;5080958;28;20465;-80
2022/04/30 11:44:19;;;;;;;7.70;5.55;;;14.30;58.80;;;;;;5077505;28;20098;-80
2022/04/30 11:46:48;;;;;;;8.20;5.57;;;14.30;58.80;;;;;;5077607;28;20101;-80
2022/04/30 11:49:20;;;;;;;7.55;5.40;;;14.30;58.80;;;;;;5073509;28;20567;-80
2022/04/30 11:52:05;;;;;;;8.00;5.43;;;14.30;58.80;;;;;;5073727;28;20124;-80
2022/04/30 11:54:37;;;;;;;8.98;4.70;;;14.30;58.80;;;;;;5077154;28;20055;-80
2022/04/30 11:57:04;;;;;;;7.78;4.78;;;14.30;58.80;;;;;;5076970;28;20052;-80
2022/04/30 11:59:41;;;;;;;10.35;4.80;;;14.30;58.80;;;;;;5080875;28;20494;-80
2022/04/30 12:02:11;;;;;;;8.23;5.20;;;14.30;58.80;;;;;;5085349;28;20569;-80
2022/04/30 12:04:43;;;;;;;9.52;4.93;;;14.40;58.80;;;;;;5074446;28;20044;-80
2022/04/30 12:07:14;;;;;;;10.73;5.13;;;14.40;58.70;;;;;;5089421;28;20055;-80
2022/04/30 12:09:50;;;;;;;8.15;5.22;;;14.40;58.70;;;;;;5089049;28;20044;-81
2022/04/30 12:12:22;;;;;;;9.00;4.85;;;14.50;58.70;;;;;;5087161;28;20093;-80
2022/04/30 12:14:53;;;;;;;7.70;4.70;;;14.50;58.60;;;;;;5090380;28;20052;-80
2022/04/30 12:26:18;;;;;;;8.18;4.85;;;14.70;58.10;;;;;;5077396;28;20106;-80
2022/04/30 12:28:47;;;;;;;8.65;4.90;;;14.80;58.00;;;;;;5073143;28;20056;-80
2022/04/30 12:31:14;;;;;;;7.80;4.60;;;14.90;58.00;;;;;;5089109;28;20048;-80
2022/04/30 12:33:59;;;;;;;6.75;4.43;;;14.90;57.90;;;;;;5086446;28;20473;-80
2022/04/30 12:36:25;;;;;;;7.97;4.55;;;15.00;57.70;;;;;;5074750;28;20052;-80
2022/04/30 12:38:56;;;;;;;8.38;4.43;;;15.10;57.70;;;;;;5082263;28;20082;-80
2022/04/30 12:41:23;;;;;;;6.95;4.25;;;15.20;57.50;;;;;;5084163;28;20043;-79
2022/04/30 12:43:53;;;;;;;6.97;4.40;;;15.30;57.50;;;;;;5087888;28;20048;-80
2022/04/30 12:46:23;;;;;;;8.25;4.78;;;15.40;57.20;;;;;;5073150;28;20040;-81
2022/04/30 12:48:51;;;;;;;6.82;4.60;;;15.40;57.00;;;;;;5086579;28;20048;-79
2022/04/30 12:51:19;;;;;;;8.75;4.45;;;15.50;56.90;;;;;;5085308;28;20460;-80
2022/04/30 12:53:47;;;;;;;6.07;4.07;;;15.60;56.70;;;;;;5084217;28;20514;-80
2022/04/30 12:56:16;;;;;;;6.72;4.50;;;15.70;56.60;;;;;;5083907;28;20410;-80
2022/04/30 12:58:43;;;;;;;8.00;4.35;;;15.80;56.40;;;;;;5084671;28;20139;-80
2022/04/30 13:01:10;;;;;;;6.25;3.83;;;15.90;56.20;;;;;;5072756;28;20090;-80
2022/04/30 13:03:38;;;;;;;8.20;4.03;;;15.90;56.10;;;;;;5073364;28;20044;-80
2022/04/30 13:06:05;;;;;;;6.25;3.90;;;16.00;56.00;;;;;;5084095;28;20052;-80
2022/04/30 13:14:04;;;;;;;6.80;4.03;;;16.30;55.50;;;;;;5076145;28;20047;-80
2022/04/30 13:16:31;;;;;;;7.00;4.40;;;16.40;55.30;;;;;;5074353;28;20445;-80
2022/04/30 13:18:58;;;;;;;6.72;4.18;;;16.40;55.10;;;;;;5073554;28;20084;-80
2022/04/30 13:21:26;;;;;;;6.38;3.95;;;16.50;55.00;;;;;;5076365;28;20541;-79
2022/04/30 13:23:53;;;;;;;6.32;3.63;;;16.60;54.80;;;;;;5075877;28;20469;-80
2022/04/30 13:26:20;;;;;;;7.13;3.92;;;16.70;54.60;;;;;;5076457;28;20045;-79
2022/04/30 13:28:48;;;;;;;6.97;3.40;;;16.70;54.40;;;;;;5076365;28;20056;-80
2022/04/30 13:31:15;;;;;;;9.02;3.83;;;16.80;54.30;;;;;;5072578;28;20044;-80
2022/04/30 13:33:42;;;;;;;5.05;3.40;;;16.90;54.10;;;;;;5075111;28;20091;-80
2022/04/30 13:36:09;;;;;;;7.38;3.85;;;16.90;54.00;;;;;;5085687;28;20048;-80
2022/04/30 13:38:38;;;;;;;5.63;3.25;;;17.00;53.80;;;;;;5079862;28;20053;-80
2022/04/30 13:41:06;;;;;;;6.03;3.50;;;17.10;53.70;;;;;;5075864;28;20430;-79
2022/04/30 13:43:33;;;;;;;8.18;3.78;;;17.20;53.50;;;;;;5073519;28;20591;-80
2022/04/30 13:46:00;;;;;;;5.55;3.40;;;17.30;53.30;;;;;;5087927;28;20048;-79
2022/04/30 13:48:27;;;;;;;10.25;3.42;;;17.30;53.10;;;;;;5076132;28;20049;-80